Аэропорт: Алматы. Алма-Ата

ICAO: UAAA

METAR:
2019/01/21 23:00
UAAA 212300Z 22002MPS 4800 -SN BR OVC021 M02/M03 Q1025 R23R/3///50 R23L/3///45 NOSIG
METAR:
2019/01/21 18:18
TAF TAF UAAA 211700Z 2118/2218 06004MPS 0600 FZFG VV003 TXM03/2207Z TNM07/2201Z 
      TEMPO 2118/2206 16003MPS 0200 VV001 
      TEMPO 2206/2208 1200 BR SCT005 
      BECMG 2208/2209 3100 BR FU BKN011 BKN100 
      BECMG 2212/2213 18004MPS 1300 
      TEMPO 2212/2218 0300 FZFG VV002